KKB weather

Kitoi Bay Seaplane Base
Kitoi Bay, Alaska, United States

Public forecast

Using degrees Fahrenheit for public forecast. Weather courtesy of forecast.io.

METAR (pilot weather report)

Closest report is Kodiak Airport, 26.8 nm (49.6 km) S. Retrieved 2019/09/17 04:53 UTC (24 minutes ago):

PADQ 170453Z 29005KT 10SM CLR 16/07 A2969

TAF (pilot weather forecast)

Forecast is more than 12 hours old.

Closest forecast is Kodiak Airport, 26.8 nm (49.6 km) S. Retrieved 2019/09/16 00:42 UTC (1 day ago):

TAF PADQ 162340Z 1700/1724 28015G20KT P6SM SKC FM170500 27008KT P6SM SKC FM171800 12007KT P6SM VCSH SCT050 BKN100 FM172100 12008KT P6SM -RA BKN040 OVC080